Laguna de Duero, Spain
Current Conditions -  °F | °C
As of 10:30 AM on Friday 28 Nov 2014 (Local Time) from LEVD Reporting Station
Broken Clouds Broken Clouds  
Wind Chill: 42°   Ceiling: 4500
Heat Index: 48°   Visibility: 6mi
Dew Point: 41°   Wind: 18mph
Humidity: 76%   Direction: 140°SE
Pressure: 29"   Gusts: NA
Location:  41.58°N, 4.72°W
Report Text: LEVD 280930Z 14016KT 9999 SCT025 BKN045 09/05 Q0982
Loading
Personal Weather Stations






























Interactive Weather Map New forecast layout! Learn more

10-Day Weather Forecast

Advertisements
Track Severe Weather on mobile